Terminal Aerodrome Forecast
Issued by NWS Green Bay, WI

Home | Current Version | Previous Version | Graphics & Text | Print | Product List | Glossary On
Versions: 1 2 3 4 5 6 7 8 9 10 11 12 13 14 15
000
FTUS43 KGRB 281143 RRA
TAFGRB
TAF
KGRB 281143Z 2812/2912 17006KT 6SM BR VCSH SCT025 OVC070
     FM281600 19012KT P6SM BKN018 OVC050
     FM282100 19012KT P6SM SCT025 BKN050
      TEMPO 2823/2903 4SM TSRA BKN025CB
     FM290400 20005KT 6SM BR BKN035 BKN070
      TEMPO 2908/2912 4SM BR BKN007=

USA.gov is the U.S. government's official web portal to all federal, state and local government web resources and services.